sensor_id;sensor_type;location;lat;lon;timestamp;P1;durP1;ratioP1;P2;durP2;ratioP2
37777;SDS011;23615;51.506;7.678;2023-08-24T00:01:49;3.63;;;3.33;;
37777;SDS011;23615;51.506;7.678;2023-08-24T00:04:15;4.17;;;3.87;;
37777;SDS011;23615;51.506;7.678;2023-08-24T00:06:40;3.45;;;3.15;;
37777;SDS011;23615;51.506;7.678;2023-08-24T00:09:05;3.07;;;2.80;;
37777;SDS011;23615;51.506;7.678;2023-08-24T00:11:31;4.10;;;3.70;;
37777;SDS011;23615;51.506;7.678;2023-08-24T00:13:57;4.37;;;3.97;;
37777;SDS011;23615;51.506;7.678;2023-08-24T00:16:22;4.30;;;3.90;;
37777;SDS011;23615;51.506;7.678;2023-08-24T00:18:47;5.22;;;4.18;;
37777;SDS011;23615;51.506;7.678;2023-08-24T00:21:13;4.87;;;4.10;;
37777;SDS011;23615;51.506;7.678;2023-08-24T00:23:42;4.70;;;3.67;;
37777;SDS011;23615;51.506;7.678;2023-08-24T00:26:07;4.57;;;4.20;;
37777;SDS011;23615;51.506;7.678;2023-08-24T00:28:32;3.87;;;3.63;;
37777;SDS011;23615;51.506;7.678;2023-08-24T00:30:58;3.93;;;3.63;;
37777;SDS011;23615;51.506;7.678;2023-08-24T00:33:23;5.80;;;4.57;;
37777;SDS011;23615;51.506;7.678;2023-08-24T00:35:49;6.80;;;6.00;;
37777;SDS011;23615;51.506;7.678;2023-08-24T00:38:14;5.47;;;4.97;;
37777;SDS011;23615;51.506;7.678;2023-08-24T00:40:41;4.73;;;4.30;;
37777;SDS011;23615;51.506;7.678;2023-08-24T00:43:08;4.40;;;4.00;;
37777;SDS011;23615;51.506;7.678;2023-08-24T00:45:34;5.60;;;5.20;;
37777;SDS011;23615;51.506;7.678;2023-08-24T00:48:00;7.97;;;7.18;;
37777;SDS011;23615;51.506;7.678;2023-08-24T00:50:26;8.95;;;7.10;;
37777;SDS011;23615;51.506;7.678;2023-08-24T00:52:52;5.53;;;5.00;;
37777;SDS011;23615;51.506;7.678;2023-08-24T00:55:18;6.30;;;5.40;;
37777;SDS011;23615;51.506;7.678;2023-08-24T00:57:45;6.20;;;5.60;;
37777;SDS011;23615;51.506;7.678;2023-08-24T01:00:12;6.07;;;5.57;;
37777;SDS011;23615;51.506;7.678;2023-08-24T01:02:38;9.00;;;6.30;;
37777;SDS011;23615;51.506;7.678;2023-08-24T01:05:04;7.80;;;6.87;;
37777;SDS011;23615;51.506;7.678;2023-08-24T01:07:30;6.67;;;6.03;;
37777;SDS011;23615;51.506;7.678;2023-08-24T01:09:57;5.15;;;4.65;;
37777;SDS011;23615;51.506;7.678;2023-08-24T01:15:12;5.38;;;4.70;;
37777;SDS011;23615;51.506;7.678;2023-08-24T01:17:40;4.97;;;4.57;;
37777;SDS011;23615;51.506;7.678;2023-08-24T01:20:08;6.75;;;5.68;;
37777;SDS011;23615;51.506;7.678;2023-08-24T01:27:41;3.97;;;3.58;;
37777;SDS011;23615;51.506;7.678;2023-08-24T01:30:08;4.30;;;3.90;;
37777;SDS011;23615;51.506;7.678;2023-08-24T01:32:34;4.30;;;3.90;;
37777;SDS011;23615;51.506;7.678;2023-08-24T01:35:01;5.10;;;3.58;;
37777;SDS011;23615;51.506;7.678;2023-08-24T01:37:30;4.37;;;3.63;;
37777;SDS011;23615;51.506;7.678;2023-08-24T01:40:00;4.27;;;3.60;;
37777;SDS011;23615;51.506;7.678;2023-08-24T01:42:39;4.00;;;3.65;;
37777;SDS011;23615;51.506;7.678;2023-08-24T01:45:28;6.40;;;4.28;;
37777;SDS011;23615;51.506;7.678;2023-08-24T01:47:55;4.13;;;3.75;;
37777;SDS011;23615;51.506;7.678;2023-08-24T01:50:22;4.85;;;4.45;;
37777;SDS011;23615;51.506;7.678;2023-08-24T01:52:48;3.20;;;2.92;;
37777;SDS011;23615;51.506;7.678;2023-08-24T01:55:17;8.13;;;4.95;;
37777;SDS011;23615;51.506;7.678;2023-08-24T01:57:43;5.40;;;4.72;;
37777;SDS011;23615;51.506;7.678;2023-08-24T02:00:08;5.23;;;4.10;;
37777;SDS011;23615;51.506;7.678;2023-08-24T02:02:34;5.65;;;4.18;;
37777;SDS011;23615;51.506;7.678;2023-08-24T02:05:00;4.28;;;3.88;;
37777;SDS011;23615;51.506;7.678;2023-08-24T02:07:26;3.45;;;3.15;;
37777;SDS011;23615;51.506;7.678;2023-08-24T02:09:52;4.00;;;3.60;;
37777;SDS011;23615;51.506;7.678;2023-08-24T02:12:17;4.57;;;3.50;;
37777;SDS011;23615;51.506;7.678;2023-08-24T02:14:42;3.77;;;3.47;;
37777;SDS011;23615;51.506;7.678;2023-08-24T02:17:08;3.40;;;3.10;;
37777;SDS011;23615;51.506;7.678;2023-08-24T02:19:33;4.40;;;3.63;;
37777;SDS011;23615;51.506;7.678;2023-08-24T02:21:59;3.65;;;3.35;;
37777;SDS011;23615;51.506;7.678;2023-08-24T02:24:24;3.53;;;3.23;;
37777;SDS011;23615;51.506;7.678;2023-08-24T02:26:49;3.83;;;3.47;;
37777;SDS011;23615;51.506;7.678;2023-08-24T02:29:15;3.57;;;3.33;;
37777;SDS011;23615;51.506;7.678;2023-08-24T02:31:40;5.03;;;4.57;;
37777;SDS011;23615;51.506;7.678;2023-08-24T02:34:05;4.37;;;3.97;;
37777;SDS011;23615;51.506;7.678;2023-08-24T02:36:31;4.70;;;3.97;;
37777;SDS011;23615;51.506;7.678;2023-08-24T02:38:58;7.30;;;5.50;;
37777;SDS011;23615;51.506;7.678;2023-08-24T02:41:24;4.53;;;4.13;;
37777;SDS011;23615;51.506;7.678;2023-08-24T02:43:49;4.23;;;3.90;;
37777;SDS011;23615;51.506;7.678;2023-08-24T02:46:14;4.33;;;3.93;;
37777;SDS011;23615;51.506;7.678;2023-08-24T02:48:39;3.50;;;3.30;;
37777;SDS011;23615;51.506;7.678;2023-08-24T02:51:05;4.45;;;3.95;;
37777;SDS011;23615;51.506;7.678;2023-08-24T02:53:31;4.38;;;3.97;;
37777;SDS011;23615;51.506;7.678;2023-08-24T02:55:56;4.50;;;4.10;;
37777;SDS011;23615;51.506;7.678;2023-08-24T02:58:22;5.68;;;5.05;;
37777;SDS011;23615;51.506;7.678;2023-08-24T03:00:47;5.15;;;4.68;;
37777;SDS011;23615;51.506;7.678;2023-08-24T03:03:13;4.67;;;4.27;;
37777;SDS011;23615;51.506;7.678;2023-08-24T03:05:39;4.70;;;4.20;;
37777;SDS011;23615;51.506;7.678;2023-08-24T03:08:05;4.50;;;4.10;;
37777;SDS011;23615;51.506;7.678;2023-08-24T03:10:31;6.00;;;4.00;;
37777;SDS011;23615;51.506;7.678;2023-08-24T03:12:59;4.90;;;4.50;;
37777;SDS011;23615;51.506;7.678;2023-08-24T03:15:24;4.67;;;4.23;;
37777;SDS011;23615;51.506;7.678;2023-08-24T03:17:50;4.20;;;3.90;;
37777;SDS011;23615;51.506;7.678;2023-08-24T03:20:15;4.67;;;4.27;;
37777;SDS011;23615;51.506;7.678;2023-08-24T03:22:41;4.50;;;4.10;;
37777;SDS011;23615;51.506;7.678;2023-08-24T03:25:06;4.50;;;4.10;;
37777;SDS011;23615;51.506;7.678;2023-08-24T03:27:32;5.37;;;4.73;;
37777;SDS011;23615;51.506;7.678;2023-08-24T03:29:57;5.73;;;5.17;;
37777;SDS011;23615;51.506;7.678;2023-08-24T03:32:23;5.40;;;4.80;;
37777;SDS011;23615;51.506;7.678;2023-08-24T03:34:49;5.27;;;4.77;;
37777;SDS011;23615;51.506;7.678;2023-08-24T03:37:14;4.10;;;3.80;;
37777;SDS011;23615;51.506;7.678;2023-08-24T03:39:40;4.67;;;3.67;;
37777;SDS011;23615;51.506;7.678;2023-08-24T03:42:06;3.67;;;3.38;;
37777;SDS011;23615;51.506;7.678;2023-08-24T03:44:31;5.20;;;4.70;;
37777;SDS011;23615;51.506;7.678;2023-08-24T03:46:56;5.72;;;4.80;;
37777;SDS011;23615;51.506;7.678;2023-08-24T03:49:22;4.33;;;3.97;;
37777;SDS011;23615;51.506;7.678;2023-08-24T03:51:48;4.23;;;3.93;;
37777;SDS011;23615;51.506;7.678;2023-08-24T03:54:13;4.38;;;3.97;;
37777;SDS011;23615;51.506;7.678;2023-08-24T03:56:39;4.33;;;3.93;;
37777;SDS011;23615;51.506;7.678;2023-08-24T03:59:04;4.33;;;3.83;;
37777;SDS011;23615;51.506;7.678;2023-08-24T04:01:30;4.87;;;3.93;;
37777;SDS011;23615;51.506;7.678;2023-08-24T04:03:55;3.70;;;3.40;;
37777;SDS011;23615;51.506;7.678;2023-08-24T04:06:20;4.18;;;3.88;;
37777;SDS011;23615;51.506;7.678;2023-08-24T04:08:46;3.83;;;3.53;;
37777;SDS011;23615;51.506;7.678;2023-08-24T04:11:11;5.47;;;4.20;;
37777;SDS011;23615;51.506;7.678;2023-08-24T04:13:37;4.07;;;3.77;;
37777;SDS011;23615;51.506;7.678;2023-08-24T04:16:02;4.70;;;4.30;;
37777;SDS011;23615;51.506;7.678;2023-08-24T04:18:28;4.60;;;4.30;;
37777;SDS011;23615;51.506;7.678;2023-08-24T04:20:54;3.70;;;3.33;;
37777;SDS011;23615;51.506;7.678;2023-08-24T04:23:23;4.17;;;3.77;;
37777;SDS011;23615;51.506;7.678;2023-08-24T04:25:54;3.55;;;3.25;;
37777;SDS011;23615;51.506;7.678;2023-08-24T04:28:19;4.40;;;4.03;;
37777;SDS011;23615;51.506;7.678;2023-08-24T04:30:52;5.55;;;4.45;;
37777;SDS011;23615;51.506;7.678;2023-08-24T04:33:18;4.68;;;4.28;;
37777;SDS011;23615;51.506;7.678;2023-08-24T04:35:45;4.50;;;4.10;;
37777;SDS011;23615;51.506;7.678;2023-08-24T04:38:14;4.83;;;4.43;;
37777;SDS011;23615;51.506;7.678;2023-08-24T04:41:13;4.10;;;3.80;;
37777;SDS011;23615;51.506;7.678;2023-08-24T04:43:33;5.25;;;3.83;;
37777;SDS011;23615;51.506;7.678;2023-08-24T04:45:58;4.17;;;3.77;;
37777;SDS011;23615;51.506;7.678;2023-08-24T04:48:24;4.57;;;3.87;;
37777;SDS011;23615;51.506;7.678;2023-08-24T04:50:51;3.20;;;3.00;;
37777;SDS011;23615;51.506;7.678;2023-08-24T04:53:18;3.72;;;3.33;;
37777;SDS011;23615;51.506;7.678;2023-08-24T04:55:45;3.90;;;3.47;;
37777;SDS011;23615;51.506;7.678;2023-08-24T04:58:12;3.95;;;3.10;;
37777;SDS011;23615;51.506;7.678;2023-08-24T05:00:38;4.85;;;3.53;;
37777;SDS011;23615;51.506;7.678;2023-08-24T05:03:03;3.47;;;3.03;;
37777;SDS011;23615;51.506;7.678;2023-08-24T05:05:30;4.35;;;3.28;;
37777;SDS011;23615;51.506;7.678;2023-08-24T05:07:56;3.75;;;2.97;;
37777;SDS011;23615;51.506;7.678;2023-08-24T05:10:22;4.05;;;3.45;;
37777;SDS011;23615;51.506;7.678;2023-08-24T05:12:47;4.83;;;3.33;;
37777;SDS011;23615;51.506;7.678;2023-08-24T05:15:12;3.73;;;2.90;;
37777;SDS011;23615;51.506;7.678;2023-08-24T05:17:38;3.80;;;3.35;;
37777;SDS011;23615;51.506;7.678;2023-08-24T05:20:07;3.90;;;3.60;;
37777;SDS011;23615;51.506;7.678;2023-08-24T05:22:35;4.20;;;3.80;;
37777;SDS011;23615;51.506;7.678;2023-08-24T05:25:01;3.33;;;2.97;;
37777;SDS011;23615;51.506;7.678;2023-08-24T05:27:26;5.03;;;4.17;;
37777;SDS011;23615;51.506;7.678;2023-08-24T05:29:52;3.33;;;3.00;;
37777;SDS011;23615;51.506;7.678;2023-08-24T05:32:17;4.53;;;3.57;;
37777;SDS011;23615;51.506;7.678;2023-08-24T05:34:42;3.30;;;3.00;;
37777;SDS011;23615;51.506;7.678;2023-08-24T05:37:08;3.53;;;3.30;;
37777;SDS011;23615;51.506;7.678;2023-08-24T05:39:33;2.90;;;2.70;;
37777;SDS011;23615;51.506;7.678;2023-08-24T05:41:58;2.60;;;2.40;;
37777;SDS011;23615;51.506;7.678;2023-08-24T05:44:23;4.13;;;2.70;;
37777;SDS011;23615;51.506;7.678;2023-08-24T05:46:49;2.30;;;2.20;;
37777;SDS011;23615;51.506;7.678;2023-08-24T05:52:24;2.30;;;2.10;;
37777;SDS011;23615;51.506;7.678;2023-08-24T05:54:49;2.40;;;2.20;;
37777;SDS011;23615;51.506;7.678;2023-08-24T05:57:15;2.77;;;2.30;;
37777;SDS011;23615;51.506;7.678;2023-08-24T05:59:41;2.42;;;2.20;;
37777;SDS011;23615;51.506;7.678;2023-08-24T06:02:06;2.77;;;2.47;;
37777;SDS011;23615;51.506;7.678;2023-08-24T06:04:31;2.93;;;2.67;;
37777;SDS011;23615;51.506;7.678;2023-08-24T06:06:57;2.60;;;2.40;;
37777;SDS011;23615;51.506;7.678;2023-08-24T06:09:22;3.93;;;3.57;;
37777;SDS011;23615;51.506;7.678;2023-08-24T06:11:53;3.67;;;2.93;;
37777;SDS011;23615;51.506;7.678;2023-08-24T06:14:19;4.82;;;4.20;;
37777;SDS011;23615;51.506;7.678;2023-08-24T06:16:44;4.13;;;3.73;;
37777;SDS011;23615;51.506;7.678;2023-08-24T06:19:09;5.10;;;3.80;;
37777;SDS011;23615;51.506;7.678;2023-08-24T06:21:34;3.90;;;3.43;;
37777;SDS011;23615;51.506;7.678;2023-08-24T06:24:00;5.50;;;4.27;;
37777;SDS011;23615;51.506;7.678;2023-08-24T06:26:26;6.00;;;4.65;;
37777;SDS011;23615;51.506;7.678;2023-08-24T06:28:51;4.40;;;4.00;;
37777;SDS011;23615;51.506;7.678;2023-08-24T06:31:16;6.00;;;4.40;;
37777;SDS011;23615;51.506;7.678;2023-08-24T06:33:41;4.27;;;3.03;;
37777;SDS011;23615;51.506;7.678;2023-08-24T06:36:07;4.87;;;4.07;;
37777;SDS011;23615;51.506;7.678;2023-08-24T06:38:37;4.00;;;3.65;;
37777;SDS011;23615;51.506;7.678;2023-08-24T06:41:02;5.00;;;4.43;;
37777;SDS011;23615;51.506;7.678;2023-08-24T06:43:28;3.80;;;3.50;;
37777;SDS011;23615;51.506;7.678;2023-08-24T06:45:56;6.78;;;3.88;;
37777;SDS011;23615;51.506;7.678;2023-08-24T06:48:22;4.13;;;3.65;;
37777;SDS011;23615;51.506;7.678;2023-08-24T06:50:47;5.00;;;3.80;;
37777;SDS011;23615;51.506;7.678;2023-08-24T06:53:13;4.67;;;4.10;;
37777;SDS011;23615;51.506;7.678;2023-08-24T06:55:39;4.53;;;3.30;;
37777;SDS011;23615;51.506;7.678;2023-08-24T06:58:05;5.53;;;3.87;;
37777;SDS011;23615;51.506;7.678;2023-08-24T07:00:30;6.47;;;4.15;;
37777;SDS011;23615;51.506;7.678;2023-08-24T07:02:56;3.97;;;3.40;;
37777;SDS011;23615;51.506;7.678;2023-08-24T07:05:22;5.25;;;4.53;;
37777;SDS011;23615;51.506;7.678;2023-08-24T07:07:49;7.43;;;5.10;;
37777;SDS011;23615;51.506;7.678;2023-08-24T07:10:14;7.38;;;4.82;;
37777;SDS011;23615;51.506;7.678;2023-08-24T07:12:40;6.87;;;3.77;;
37777;SDS011;23615;51.506;7.678;2023-08-24T07:15:06;4.57;;;2.60;;
37777;SDS011;23615;51.506;7.678;2023-08-24T07:17:32;4.38;;;3.30;;
37777;SDS011;23615;51.506;7.678;2023-08-24T07:19:58;5.38;;;3.75;;
37777;SDS011;23615;51.506;7.678;2023-08-24T07:25:37;3.88;;;2.83;;
37777;SDS011;23615;51.506;7.678;2023-08-24T07:28:03;6.20;;;3.30;;
37777;SDS011;23615;51.506;7.678;2023-08-24T07:30:31;4.97;;;3.80;;
37777;SDS011;23615;51.506;7.678;2023-08-24T07:32:56;2.75;;;2.53;;
37777;SDS011;23615;51.506;7.678;2023-08-24T07:35:22;2.90;;;2.23;;
37777;SDS011;23615;51.506;7.678;2023-08-24T07:37:50;3.88;;;2.20;;
37777;SDS011;23615;51.506;7.678;2023-08-24T07:40:16;4.15;;;2.90;;
37777;SDS011;23615;51.506;7.678;2023-08-24T07:42:48;2.75;;;1.98;;
37777;SDS011;23615;51.506;7.678;2023-08-24T07:45:19;4.25;;;2.83;;
37777;SDS011;23615;51.506;7.678;2023-08-24T07:47:45;4.32;;;2.38;;
37777;SDS011;23615;51.506;7.678;2023-08-24T07:50:10;2.77;;;2.10;;
37777;SDS011;23615;51.506;7.678;2023-08-24T07:52:39;2.78;;;1.92;;
37777;SDS011;23615;51.506;7.678;2023-08-24T07:55:05;4.13;;;2.13;;
37777;SDS011;23615;51.506;7.678;2023-08-24T07:57:32;2.90;;;2.45;;
37777;SDS011;23615;51.506;7.678;2023-08-24T07:59:58;4.35;;;2.70;;
37777;SDS011;23615;51.506;7.678;2023-08-24T08:02:24;2.10;;;1.48;;
37777;SDS011;23615;51.506;7.678;2023-08-24T08:04:49;3.15;;;2.13;;
37777;SDS011;23615;51.506;7.678;2023-08-24T08:07:15;4.70;;;2.43;;
37777;SDS011;23615;51.506;7.678;2023-08-24T08:09:40;2.40;;;1.40;;
37777;SDS011;23615;51.506;7.678;2023-08-24T08:12:05;3.13;;;1.80;;
37777;SDS011;23615;51.506;7.678;2023-08-24T08:14:31;2.60;;;1.50;;
37777;SDS011;23615;51.506;7.678;2023-08-24T08:16:56;2.67;;;1.43;;
37777;SDS011;23615;51.506;7.678;2023-08-24T08:19:22;3.03;;;2.03;;
37777;SDS011;23615;51.506;7.678;2023-08-24T08:21:50;3.72;;;1.60;;
37777;SDS011;23615;51.506;7.678;2023-08-24T08:24:15;3.23;;;1.67;;
37777;SDS011;23615;51.506;7.678;2023-08-24T08:26:40;3.03;;;1.43;;
37777;SDS011;23615;51.506;7.678;2023-08-24T08:29:05;1.87;;;1.33;;
37777;SDS011;23615;51.506;7.678;2023-08-24T08:31:31;3.13;;;2.03;;
37777;SDS011;23615;51.506;7.678;2023-08-24T08:33:56;4.47;;;1.45;;
37777;SDS011;23615;51.506;7.678;2023-08-24T08:36:21;3.23;;;1.50;;
37777;SDS011;23615;51.506;7.678;2023-08-24T08:38:47;2.17;;;1.50;;
37777;SDS011;23615;51.506;7.678;2023-08-24T08:41:13;2.35;;;1.40;;
37777;SDS011;23615;51.506;7.678;2023-08-24T08:43:40;1.80;;;1.20;;
37777;SDS011;23615;51.506;7.678;2023-08-24T08:46:06;1.95;;;1.15;;
37777;SDS011;23615;51.506;7.678;2023-08-24T08:48:31;1.50;;;1.10;;
37777;SDS011;23615;51.506;7.678;2023-08-24T08:50:58;1.60;;;1.27;;
37777;SDS011;23615;51.506;7.678;2023-08-24T08:53:27;2.17;;;1.40;;
37777;SDS011;23615;51.506;7.678;2023-08-24T08:55:53;2.07;;;1.33;;
37777;SDS011;23615;51.506;7.678;2023-08-24T08:58:20;2.45;;;1.15;;
37777;SDS011;23615;51.506;7.678;2023-08-24T09:00:46;1.25;;;0.80;;
37777;SDS011;23615;51.506;7.678;2023-08-24T09:03:12;0.82;;;0.80;;
37777;SDS011;23615;51.506;7.678;2023-08-24T09:05:42;1.50;;;0.80;;
37777;SDS011;23615;51.506;7.678;2023-08-24T09:08:07;1.90;;;0.88;;
37777;SDS011;23615;51.506;7.678;2023-08-24T09:10:34;1.53;;;1.17;;
37777;SDS011;23615;51.506;7.678;2023-08-24T09:12:59;1.57;;;1.07;;
37777;SDS011;23615;51.506;7.678;2023-08-24T09:15:24;1.47;;;1.13;;
37777;SDS011;23615;51.506;7.678;2023-08-24T09:17:51;2.83;;;1.00;;
37777;SDS011;23615;51.506;7.678;2023-08-24T09:20:22;1.73;;;0.70;;
37777;SDS011;23615;51.506;7.678;2023-08-24T09:22:47;1.93;;;1.07;;
37777;SDS011;23615;51.506;7.678;2023-08-24T09:25:12;1.95;;;0.90;;
37777;SDS011;23615;51.506;7.678;2023-08-24T09:27:38;1.80;;;0.90;;
37777;SDS011;23615;51.506;7.678;2023-08-24T09:30:03;1.63;;;1.20;;
37777;SDS011;23615;51.506;7.678;2023-08-24T09:32:31;1.10;;;0.98;;
37777;SDS011;23615;51.506;7.678;2023-08-24T09:35:03;1.90;;;1.07;;
37777;SDS011;23615;51.506;7.678;2023-08-24T09:37:33;3.50;;;1.48;;
37777;SDS011;23615;51.506;7.678;2023-08-24T09:40:04;2.10;;;1.00;;
37777;SDS011;23615;51.506;7.678;2023-08-24T09:42:37;3.65;;;2.13;;
37777;SDS011;23615;51.506;7.678;2023-08-24T09:48:10;2.45;;;1.38;;
37777;SDS011;23615;51.506;7.678;2023-08-24T09:50:36;1.93;;;1.07;;
37777;SDS011;23615;51.506;7.678;2023-08-24T09:53:01;4.30;;;1.20;;
37777;SDS011;23615;51.506;7.678;2023-08-24T09:55:28;1.92;;;1.23;;
37777;SDS011;23615;51.506;7.678;2023-08-24T09:57:58;2.17;;;1.23;;
37777;SDS011;23615;51.506;7.678;2023-08-24T10:00:25;1.92;;;1.23;;
37777;SDS011;23615;51.506;7.678;2023-08-24T10:02:52;1.20;;;1.10;;
37777;SDS011;23615;51.506;7.678;2023-08-24T10:05:24;5.28;;;1.60;;
37777;SDS011;23615;51.506;7.678;2023-08-24T10:07:53;2.08;;;1.02;;
37777;SDS011;23615;51.506;7.678;2023-08-24T10:10:21;2.40;;;1.05;;
37777;SDS011;23615;51.506;7.678;2023-08-24T10:12:50;2.35;;;1.00;;
37777;SDS011;23615;51.506;7.678;2023-08-24T10:15:18;1.00;;;0.70;;
37777;SDS011;23615;51.506;7.678;2023-08-24T10:17:44;1.70;;;0.80;;
37777;SDS011;23615;51.506;7.678;2023-08-24T10:20:10;1.53;;;1.10;;
37777;SDS011;23615;51.506;7.678;2023-08-24T10:22:36;2.10;;;1.10;;
37777;SDS011;23615;51.506;7.678;2023-08-24T10:25:03;1.47;;;0.93;;
37777;SDS011;23615;51.506;7.678;2023-08-24T10:27:28;2.20;;;1.10;;
37777;SDS011;23615;51.506;7.678;2023-08-24T10:29:55;1.27;;;0.90;;
37777;SDS011;23615;51.506;7.678;2023-08-24T10:32:20;1.70;;;1.00;;
37777;SDS011;23615;51.506;7.678;2023-08-24T10:34:47;2.17;;;1.20;;
37777;SDS011;23615;51.506;7.678;2023-08-24T10:37:13;1.93;;;1.00;;
37777;SDS011;23615;51.506;7.678;2023-08-24T10:39:45;3.37;;;1.80;;
37777;SDS011;23615;51.506;7.678;2023-08-24T10:42:12;1.10;;;1.00;;
37777;SDS011;23615;51.506;7.678;2023-08-24T10:44:39;3.40;;;1.30;;
37777;SDS011;23615;51.506;7.678;2023-08-24T10:49:31;1.20;;;1.10;;
37777;SDS011;23615;51.506;7.678;2023-08-24T10:51:57;4.10;;;1.10;;
37777;SDS011;23615;51.506;7.678;2023-08-24T10:54:34;1.50;;;0.80;;
37777;SDS011;23615;51.506;7.678;2023-08-24T10:57:07;1.40;;;0.90;;
37777;SDS011;23615;51.506;7.678;2023-08-24T10:59:44;1.70;;;1.13;;
37777;SDS011;23615;51.506;7.678;2023-08-24T11:02:10;1.50;;;0.80;;
37777;SDS011;23615;51.506;7.678;2023-08-24T11:07:53;2.00;;;0.70;;
37777;SDS011;23615;51.506;7.678;2023-08-24T11:10:26;1.50;;;0.87;;
37777;SDS011;23615;51.506;7.678;2023-08-24T11:15:31;2.85;;;1.02;;
37777;SDS011;23615;51.506;7.678;2023-08-24T11:20:55;1.42;;;0.82;;
37777;SDS011;23615;51.506;7.678;2023-08-24T11:23:24;1.52;;;0.68;;
37777;SDS011;23615;51.506;7.678;2023-08-24T11:25:51;2.70;;;1.10;;
37777;SDS011;23615;51.506;7.678;2023-08-24T11:28:21;0.90;;;0.70;;
37777;SDS011;23615;51.506;7.678;2023-08-24T11:30:47;1.10;;;1.00;;
37777;SDS011;23615;51.506;7.678;2023-08-24T11:33:12;1.77;;;0.90;;
37777;SDS011;23615;51.506;7.678;2023-08-24T11:35:40;1.35;;;0.70;;
37777;SDS011;23615;51.506;7.678;2023-08-24T11:38:09;2.08;;;0.80;;
37777;SDS011;23615;51.506;7.678;2023-08-24T11:40:35;1.75;;;0.90;;
37777;SDS011;23615;51.506;7.678;2023-08-24T11:43:01;1.57;;;0.97;;
37777;SDS011;23615;51.506;7.678;2023-08-24T11:45:44;1.23;;;0.73;;
37777;SDS011;23615;51.506;7.678;2023-08-24T11:48:09;1.40;;;0.90;;
37777;SDS011;23615;51.506;7.678;2023-08-24T11:50:35;1.10;;;0.70;;
37777;SDS011;23615;51.506;7.678;2023-08-24T11:53:02;1.45;;;0.90;;
37777;SDS011;23615;51.506;7.678;2023-08-24T11:55:28;1.40;;;0.73;;
37777;SDS011;23615;51.506;7.678;2023-08-24T11:57:53;1.33;;;0.83;;
37777;SDS011;23615;51.506;7.678;2023-08-24T12:00:19;1.00;;;0.90;;
37777;SDS011;23615;51.506;7.678;2023-08-24T12:02:46;0.82;;;0.80;;
37777;SDS011;23615;51.506;7.678;2023-08-24T12:05:21;1.10;;;0.60;;
37777;SDS011;23615;51.506;7.678;2023-08-24T12:07:51;1.83;;;0.70;;
37777;SDS011;23615;51.506;7.678;2023-08-24T12:10:17;2.00;;;0.77;;
37777;SDS011;23615;51.506;7.678;2023-08-24T12:12:43;1.10;;;0.60;;
37777;SDS011;23615;51.506;7.678;2023-08-24T12:15:14;1.33;;;0.50;;
37777;SDS011;23615;51.506;7.678;2023-08-24T12:17:43;1.88;;;0.80;;
37777;SDS011;23615;51.506;7.678;2023-08-24T12:20:16;1.60;;;0.70;;
37777;SDS011;23615;51.506;7.678;2023-08-24T12:22:43;1.83;;;0.65;;
37777;SDS011;23615;51.506;7.678;2023-08-24T12:25:08;1.23;;;0.70;;
37777;SDS011;23615;51.506;7.678;2023-08-24T12:27:33;1.40;;;0.80;;
37777;SDS011;23615;51.506;7.678;2023-08-24T12:30:02;2.53;;;0.80;;
37777;SDS011;23615;51.506;7.678;2023-08-24T12:32:41;2.30;;;0.80;;
37777;SDS011;23615;51.506;7.678;2023-08-24T12:35:10;1.50;;;0.60;;
37777;SDS011;23615;51.506;7.678;2023-08-24T12:37:36;1.35;;;0.80;;
37777;SDS011;23615;51.506;7.678;2023-08-24T12:40:02;2.27;;;0.80;;
37777;SDS011;23615;51.506;7.678;2023-08-24T12:42:30;2.50;;;0.85;;
37777;SDS011;23615;51.506;7.678;2023-08-24T12:44:56;2.65;;;0.80;;
37777;SDS011;23615;51.506;7.678;2023-08-24T12:47:21;1.40;;;0.77;;
37777;SDS011;23615;51.506;7.678;2023-08-24T12:49:46;1.60;;;0.73;;
37777;SDS011;23615;51.506;7.678;2023-08-24T12:52:12;4.20;;;0.90;;
37777;SDS011;23615;51.506;7.678;2023-08-24T12:54:37;1.95;;;0.95;;
37777;SDS011;23615;51.506;7.678;2023-08-24T12:57:03;3.60;;;0.97;;
37777;SDS011;23615;51.506;7.678;2023-08-24T12:59:28;1.55;;;0.80;;
37777;SDS011;23615;51.506;7.678;2023-08-24T13:01:53;2.50;;;0.70;;
37777;SDS011;23615;51.506;7.678;2023-08-24T13:04:19;3.25;;;1.20;;
37777;SDS011;23615;51.506;7.678;2023-08-24T13:06:45;3.00;;;0.90;;
37777;SDS011;23615;51.506;7.678;2023-08-24T13:09:10;4.10;;;1.00;;
37777;SDS011;23615;51.506;7.678;2023-08-24T13:11:37;2.00;;;0.73;;
37777;SDS011;23615;51.506;7.678;2023-08-24T13:14:02;2.33;;;0.60;;
37777;SDS011;23615;51.506;7.678;2023-08-24T13:16:27;4.80;;;1.10;;
37777;SDS011;23615;51.506;7.678;2023-08-24T13:18:53;4.13;;;0.93;;
37777;SDS011;23615;51.506;7.678;2023-08-24T13:21:21;1.80;;;1.00;;
37777;SDS011;23615;51.506;7.678;2023-08-24T13:23:47;2.50;;;0.90;;
37777;SDS011;23615;51.506;7.678;2023-08-24T13:26:19;2.57;;;0.90;;
37777;SDS011;23615;51.506;7.678;2023-08-24T13:28:46;2.30;;;0.80;;
37777;SDS011;23615;51.506;7.678;2023-08-24T13:31:14;3.63;;;0.68;;
37777;SDS011;23615;51.506;7.678;2023-08-24T13:33:42;3.95;;;0.90;;
37777;SDS011;23615;51.506;7.678;2023-08-24T13:36:07;2.23;;;0.80;;
37777;SDS011;23615;51.506;7.678;2023-08-24T13:38:33;3.30;;;1.10;;
37777;SDS011;23615;51.506;7.678;2023-08-24T13:40:58;2.23;;;0.80;;
37777;SDS011;23615;51.506;7.678;2023-08-24T13:43:23;2.83;;;0.90;;
37777;SDS011;23615;51.506;7.678;2023-08-24T13:45:48;2.37;;;0.70;;
37777;SDS011;23615;51.506;7.678;2023-08-24T13:48:14;1.48;;;0.95;;
37777;SDS011;23615;51.506;7.678;2023-08-24T13:50:41;2.40;;;0.87;;
37777;SDS011;23615;51.506;7.678;2023-08-24T13:53:06;2.15;;;0.77;;
37777;SDS011;23615;51.506;7.678;2023-08-24T13:55:31;1.50;;;0.80;;
37777;SDS011;23615;51.506;7.678;2023-08-24T13:57:57;1.60;;;0.70;;
37777;SDS011;23615;51.506;7.678;2023-08-24T14:00:22;1.58;;;0.65;;
37777;SDS011;23615;51.506;7.678;2023-08-24T14:02:48;2.43;;;0.70;;
37777;SDS011;23615;51.506;7.678;2023-08-24T14:05:13;2.13;;;0.60;;
37777;SDS011;23615;51.506;7.678;2023-08-24T14:07:39;4.18;;;0.77;;
37777;SDS011;23615;51.506;7.678;2023-08-24T14:10:05;2.60;;;0.93;;
37777;SDS011;23615;51.506;7.678;2023-08-24T14:12:32;2.00;;;0.63;;
37777;SDS011;23615;51.506;7.678;2023-08-24T14:14:58;1.73;;;0.80;;
37777;SDS011;23615;51.506;7.678;2023-08-24T14:17:23;3.03;;;0.80;;
37777;SDS011;23615;51.506;7.678;2023-08-24T14:19:48;3.63;;;1.30;;
37777;SDS011;23615;51.506;7.678;2023-08-24T14:22:14;2.83;;;0.67;;
37777;SDS011;23615;51.506;7.678;2023-08-24T14:24:39;4.77;;;0.97;;
37777;SDS011;23615;51.506;7.678;2023-08-24T14:27:04;1.23;;;0.57;;
37777;SDS011;23615;51.506;7.678;2023-08-24T14:29:29;3.23;;;1.10;;
37777;SDS011;23615;51.506;7.678;2023-08-24T14:31:55;3.23;;;0.90;;
37777;SDS011;23615;51.506;7.678;2023-08-24T14:34:20;1.40;;;0.83;;
37777;SDS011;23615;51.506;7.678;2023-08-24T14:36:45;1.73;;;0.70;;
37777;SDS011;23615;51.506;7.678;2023-08-24T14:39:11;1.17;;;0.77;;
37777;SDS011;23615;51.506;7.678;2023-08-24T14:41:36;3.17;;;0.88;;
37777;SDS011;23615;51.506;7.678;2023-08-24T14:44:02;2.13;;;1.10;;
37777;SDS011;23615;51.506;7.678;2023-08-24T14:46:27;2.37;;;0.60;;
37777;SDS011;23615;51.506;7.678;2023-08-24T14:48:52;2.03;;;1.07;;
37777;SDS011;23615;51.506;7.678;2023-08-24T14:51:18;1.57;;;0.90;;
37777;SDS011;23615;51.506;7.678;2023-08-24T14:53:43;2.40;;;0.97;;
37777;SDS011;23615;51.506;7.678;2023-08-24T14:56:08;2.90;;;0.73;;
37777;SDS011;23615;51.506;7.678;2023-08-24T14:58:34;2.70;;;0.73;;
37777;SDS011;23615;51.506;7.678;2023-08-24T15:01:10;1.70;;;0.88;;
37777;SDS011;23615;51.506;7.678;2023-08-24T15:03:36;1.17;;;0.80;;
37777;SDS011;23615;51.506;7.678;2023-08-24T15:06:02;4.40;;;1.00;;
37777;SDS011;23615;51.506;7.678;2023-08-24T15:08:45;2.72;;;0.77;;
37777;SDS011;23615;51.506;7.678;2023-08-24T15:11:17;1.70;;;1.02;;
37777;SDS011;23615;51.506;7.678;2023-08-24T15:13:46;2.15;;;0.98;;